Timeline UpdatesTrip UpdatesNews PostsPvt PostsTravel TipsAdmin PostsConv PostsFollowed PostsChat RequestsBlog PostsPNR Posts

Disclaimer
Search
 
 
Wed Jul 23, 2014 21:38:30 ISTHomeTrainsΣChainsAtlasPNRForumGalleryNewsFAQTripsMembersLoginFeedback
No Recent News for this Train
Other Trains in the News **new
Latest...
..
Mon Feb 24, 2014 (09:24PM)
⇐ Return Journey: Train# 13201

13202/Mumbai LTT - Rajendra Nagar Patna Express

Nov 15 2013 (12:22PM)
Change Departure Station:
Change Arrival Station:
Post a Train Travel TipPost a Train Travel Tip **new
Post a Comment/Question/Picture/VideoPost a Comment/Question/Picture/Video
Inaugural Run
Thu Jan 01, 1998
Pantry/Catering
✓ Pantry Car Avbl
✓ Catering Avbl
RSA - Rake Sharing
NO RSA
Rake/Coach Composition
LOCO-SLR-GS-GS-A1-AB1-B2-B1-PC-S12-S11-S10-S9-S8-S7-S6-S5-S4-S3-S2-S1-GS-GS-GS-SLR
Loco
LTT-ET:-ET/BSL WAP-4 ET-COI :-ET WDP 4B COI-RJPB :-MGS WAP 4/CNB WAG 7
News    PNR    Forum    Time-Table    Availability    Fare Chart    Map    Arr/Dep History    Trips    Gallery    ΣChains    X/O    Timeline    
Travel Time: 35h 40m    61 halts    Distance: 1695 km    Avg Speed: 47 km/hr
Type: Mail/Express
Zone: ECR/East Central
Departs @ 22:15
Platform# 5
SMTWTFS
Mumbai Lokmanya Tilak Terminus/LTT 
Arrives @ 09:55 +2 nights
Platform# ???
SMTWTFS
Rajendra Nagar Bihar/RJPB 

61 halts. 242 intermediate Stations between Mumbai Lokmanya Tilak Terminus and Rajendra Nagar Bihar

Show ALL intermediate Stations  Show Old Time-Table

#CodeStation NameX/OArrivesAvgDepartsAvgHaltPFDay#KmSpeedElevZoneAddress
1LTT»Mumbai Lokmanya Tilak Terminus (5)»  -22:15-510.0557mCRMumbai, Maharashtra
2KYNKalyan Junction (8)X  22:55-23:00-5m4136.74710mCRKalyan 421301, Maharashtra
3IGPIgatpuri (4)X  00:45-00:50-5m--2118.563589mCRIgatpuri 422403, Maharashtra
4DVLDevlali (3)X  01:33-01:35-2m12163.434561mCRDist. Nashik 422401, Maharashtra
5NKNasik Road (3)X  01:45-01:50-5m22169.167563mCRNashik 422101, Maharashtra
6NRNiphad (3)X  02:18-02:20-2m--2200.678550mCRNashik, Maharashtra
7LSLasalgaon (3)X  02:33-02:35-2m--2217.459592mCRLasalgaon, Maharashtra
8MMRManmad Junction (6)X  03:00-03:05-5m22241.990580mCRManmad 423104, Maharashtra
9NGNNandgaon (3)X  03:22-03:25-3m--2267.390476mCRNandgaon, Maharashtra
10CSNChalisgaon Junction (3)X  03:53-03:55-2m--2309.496352mCRChalisgaon 424101, Maharashtra
11JLJalgaon Junction (4)X  04:53-04:55-2m32402.058213mCRJalgaon 425001, Maharashtra
12BSLBhusaval Junction (8)X  05:20-05:30-10m52426.162208mCRBhusaval 425201, Maharashtra
13RVRaver (2)  06:03-06:05-2m--2460.467242mCRJalgaon, Maharashtra
14BAUBurhanpur (2)X  06:23-06:25-2m22480.656269mCRBurhanpur, Madhya Pradesh
15NPNRNepanagar (2)X  06:53-06:55-2m--2506.834289mCRState Highway 27, Madhya Pradesh
16KNWKhandwa Junction (5)X  08:10-08:15-5m--2549.573310mCRKhandwa, Madhya Pradesh
17TLVTalvadiya (2)  08:28-08:30-2m--2565.299308mWCRKhandwa, Madhya Pradesh
18CAERChhanera (2)X  08:48-08:50-2m--2594.980283mWCRChhanera, Madhya Pradesh
19KKNKhirkiya (2)X  09:13-09:15-2m22625.690281mWCRSH 15, Madhya Pradesh
20HDHarda (3)X  09:36-09:38-2m--2657.185289mWCRHarda, Madhya Pradesh
21TBNTimarni (2)X  09:48-09:50-2m--2671.250308mWCRTimarni, Madhya Pradesh
22BPFBanapura (2)X  10:24-10:26-2m--2699.431314mWCRBanapura, Madhya Pradesh
23ETItarsi Junction (7)X11:30-11:40-10m--2732.972329mWCRItarsi 461111, Madhya Pradesh
24BGTABagratawa (2)X  12:02-12:04-2m22759.336338mWCRBagra Tawa, Madhya Pradesh
25SGPSohagpur (2)X  12:43-12:45-2m22782.462340mWCRSohagpur, Madhya Pradesh
26PPIPipariya (3)  13:02-13:04-2m12800.181338mWCRPiparia, Madhya Pradesh
27BKHBankhedi (2)X  13:18-13:20-2m22819.090351mWCRBankheri, Madhya Pradesh
28SCKRSalichauka Road (2)X  13:31-13:33-2m--2835.676355mWCRGadarwara, Madhya Pradesh
29GARGadarwara (2)X  13:44-13:46-2m12849.584352mWCRNarsinghpur, Madhya Pradesh
30KYKareli (2)  14:06-14:08-2m12877.549361mWCRKareli, Madhya Pradesh
31NUNarsinghpur (2)X  14:28-14:30-2m12893.878365mWCRNarsimhapur, Madhya Pradesh
32SRIDShridham (3)  14:54-14:56-2m22924.978373mWCRShridham, Madhya Pradesh
33MMLMadan Mahal (3)  15:34-15:36-2m22974.623428mWCRJabalpur, Madhya Pradesh
34JBPJabalpur Junction (4)  15:45-15:55-10m32978.172416mWCRJabalpur, Madhya Pradesh
35SHRSihora Road (2)X  16:27-16:29-2m--21016.576388mWCRJabalpur, Madhya Pradesh
36KTEKatni Junction (6)X  17:10-17:15-5m--21068.769387mWCRKatni, Madhya Pradesh
37JKEJukehi (3)  17:30-17:32-2m--21086.188402mWCRJukehi, Madhya Pradesh
38MYRMaihar (3)  18:03-18:05-2m--21131.747353mWCRMaihar Railway Station, Madhya Pradesh
39STASatna Junction (3)X  18:50-19:00-10m221167.171322mWCRSatna, Madhya Pradesh
40JTWJaitwar (2)  19:17-19:19-2m--21187.254321mWCRJaitwar, Madhya Pradesh
41MJGMajhagawanX  19:42-19:44-2m--21207.924343mWCRMajhgawa, Madhya Pradesh
42MKPManikpur Junction (4)XO  21:15-21:20-5m--21244.875250mNCRManikpur, Uttar Pradesh
43DBRDabhaura (2)X  21:38-21:40-2m--21267.372201mNCRDabhaura, Uttar Pradesh
44SRJShankargarh (3)X  22:07-22:09-2m--21299.837132mNCRShankargarh, Uttar Pradesh
45COIChheoki Junction (3)O  23:10-23:30-20m--21337.12596mNCRDist.-Allahabad, Uttar Pradesh
46MNFManda RoadX  01:20-01:22-2m--31382.77593mNCRNH 76, Uttar Pradesh
47BDLVindhyachal (3)X  01:44-01:46-2m--31410.22688mNCRMirzapur, Uttar Pradesh
48MZPMirzapur (3)X  02:03-02:05-2m--31417.55788mNCRMirzapur, Uttar Pradesh
49CARChunar Junction (5)XO  02:38-02:40-2m331448.83085mNCRChunar Junction, Uttar Pradesh
50ARWAhraura Road (4)X  03:16-03:18-2m--31466.82285mNCRDist. Mirzapur - 231305, Uttar Pradesh
51MGSMughal Sarai Junction (8)X  03:55-04:10-15m--31480.67483mECRMughalsarai 232101, Uttar Pradesh
52ZNAZamania (2)  04:46-04:48-2m--31524.86277mECRGhazipur, Uttar Pradesh
53DLNDildarnagar Junction (2)X  05:01-05:03-2m--31538.310772mECRDildarnagar, Uttar Pradesh
54GMRGahmar (2)  05:12-05:14-2m--31554.37968mECRDistt: Ghazipur, Uttar Pradesh
55CSAChausa (2)X  05:21-05:23-2m--31563.55568mECRState Highway 14, Bihar
56BXRBuxar (3)XO  05:35-05:37-2m--31574.53167mECRBuxar, Bihar
57BEABihiya (3)  07:07-07:09-2m--31621.62967mECRBehea, Bihar
58ARAAra Junction (3)  07:53-07:55-2m--31643.03463mECRarrah( 06182-233411), Bihar
59BTABihta (2)X  08:34-08:36-2m--31665.24262mECRDistt: Patna, Bihar
60SDESadisopur (2)  08:42-08:44-2m--31669.44164mECRSadisopur, Bihar
61DNRDanapur (5)09:03-09:05-2m--31682.52358mECRKhagaul, Bihar
62PNBEPatna Junction (10)  09:30-09:40-10m331691.91057mECRPatna 800001, Bihar
63RJPB•Rajendra Nagar Bihar (4)•  09:55----31694.5-55mECRPatna 800001, Bihar
Scroll to Top
Scroll to Bottom